Time;durP1;ratioP1;P1;durP2;ratioP2;P2;SDS_P1;SDS_P2;PMS_P1;PMS_P2;Temp;Humidity;BMP_temperature;BMP_pressure;BME280_temperature;BME280_humidity;BME280_pressure;Samples;Min_cycle;Max_cycle;Signal;HPM_P1;HPM_P2
2022/02/28 00:11:35;;;;;;;5.93;3.57;;;;;;;0.27;83.29;101489.81;31194485;28;20823;-71
2022/02/28 00:26:38;;;;;;;5.63;3.87;;;;;;;0.14;83.23;101488.09;31175022;28;20054;-72
2022/02/28 00:41:40;;;;;;;10.27;4.20;;;;;;;0.05;83.73;101481.94;31179250;28;20058;-72
2022/02/28 00:56:42;;;;;;;7.37;3.90;;;;;;;-0.03;83.63;101464.06;31198045;28;20050;-72
2022/02/28 01:11:44;;;;;;;7.10;4.13;;;;;;;-0.26;85.00;101460.75;31168622;28;20137;-72
2022/02/28 01:26:48;;;;;;;10.17;4.97;;;;;;;-0.14;85.05;101452.09;31189044;28;20532;-73
2022/02/28 01:41:50;;;;;;;10.30;4.70;;;;;;;-0.21;84.99;101451.78;31199050;28;20045;-72
2022/02/28 01:56:52;;;;;;;8.10;4.07;;;;;;;-0.44;86.66;101443.91;31198504;28;20051;-71
2022/02/28 02:11:54;;;;;;;8.03;5.07;;;;;;;-0.09;85.66;101454.63;31180894;28;20049;-71
2022/02/28 02:26:55;;;;;;;7.07;3.87;;;;;;;0.02;84.61;101439.84;31198014;28;20049;-71
2022/02/28 02:41:57;;;;;;;5.90;3.70;;;;;;;0.31;83.42;101436.53;31205729;28;20053;-71
2022/02/28 02:56:59;;;;;;;6.30;3.80;;;;;;;0.50;80.88;101433.53;31201214;28;20049;-72
2022/02/28 03:12:01;;;;;;;4.50;3.10;;;;;;;0.66;76.81;101431.94;31186071;28;20079;-71
2022/02/28 03:27:03;;;;;;;5.53;3.00;;;;;;;0.87;76.82;101411.41;31175150;28;20054;-72
2022/02/28 03:42:05;;;;;;;6.50;3.70;;;;;;;0.93;76.58;101420.84;31189149;28;20050;-71
2022/02/28 03:57:07;;;;;;;5.80;3.57;;;;;;;0.92;75.49;101408.56;31189962;28;20047;-72
2022/02/28 04:12:10;;;;;;;6.03;3.30;;;;;;;0.78;78.08;101421.34;31163974;28;20141;-71
2022/02/28 04:27:14;;;;;;;4.80;3.13;;;;;;;0.83;81.38;101431.88;31177392;28;20448;-72
2022/02/28 04:42:19;;;;;;;7.00;3.77;;;;;;;0.71;82.22;101439.75;31182476;28;20068;-72
2022/02/28 04:57:22;;;;;;;7.03;4.10;;;;;;;0.57;82.52;101449.88;31198646;28;20472;-73
2022/02/28 05:12:27;;;;;;;8.63;3.90;;;;;;;0.66;83.28;101447.97;31207727;28;20085;-72
2022/02/28 05:27:40;;;;;;;8.83;3.90;;;;;;;0.60;83.95;101449.22;31219879;28;20528;-71
2022/02/28 05:42:42;;;;;;;6.70;3.70;;;;;;;1.56;76.55;101443.16;31203472;28;20053;-73
2022/02/28 05:57:44;;;;;;;5.63;3.67;;;;;;;2.34;70.65;101429.94;31213439;28;20045;-73
2022/02/28 06:12:45;;;;;;;7.87;4.03;;;;;;;3.93;66.23;101424.59;31210025;28;20059;-73
2022/02/28 06:28:05;;;;;;;7.17;3.97;;;;;;;4.40;61.11;101441.63;31203291;28;20196;-75
2022/02/28 06:43:13;;;;;;;9.47;4.40;;;;;;;5.45;57.33;101427.66;31210704;28;20042;-71
2022/02/28 06:58:21;;;;;;;9.57;4.40;;;;;;;6.29;54.50;101427.13;31179109;28;20516;-71
2022/02/28 07:13:25;;;;;;;7.70;3.73;;;;;;;6.94;51.63;101414.38;31216699;28;20505;-74
2022/02/28 07:28:26;;;;;;;5.97;3.77;;;;;;;7.50;50.77;101419.06;31209354;28;20057;-74
2022/02/28 07:43:28;;;;;;;8.13;4.37;;;;;;;7.91;49.49;101414.56;31212465;28;20057;-74
2022/02/28 07:58:30;;;;;;;8.63;4.37;;;;;;;8.06;47.94;101388.47;31186960;28;20053;-75
2022/02/28 08:13:32;;;;;;;6.47;3.73;;;;;;;8.54;47.28;101387.44;31215898;28;20055;-74
2022/02/28 08:28:41;;;;;;;6.83;4.47;;;;;;;8.79;45.50;101381.47;31207089;28;20057;-78
2022/02/28 08:43:43;;;;;;;10.47;4.63;;;;;;;9.10;44.48;101369.31;31215346;28;20045;-75
2022/02/28 08:58:45;;;;;;;8.23;4.07;;;;;;;9.75;43.13;101366.56;31176713;28;20085;-75
2022/02/28 09:13:49;;;;;;;6.90;3.93;;;;;;;9.96;42.20;101365.06;31193627;28;20073;-77
2022/02/28 09:28:51;;;;;;;8.70;4.00;;;;;;;8.52;45.55;101351.84;31201293;28;20052;-76
2022/02/28 09:43:54;;;;;;;7.43;4.20;;;;;;;7.47;47.65;101347.63;31156187;28;20144;-79
2022/02/28 09:58:56;;;;;;;5.07;3.50;;;;;;;6.33;52.20;101339.75;31195577;28;20069;-81
2022/02/28 10:14:20;;;;;;;7.93;3.87;;;;;;;5.23;55.99;101326.00;31239945;28;20056;-76
2022/02/28 10:29:22;;;;;;;9.60;4.47;;;;;;;4.54;58.88;101349.00;31222339;28;20481;-73
2022/02/28 10:44:24;;;;;;;7.33;3.60;;;;;;;4.37;59.58;101342.06;31194588;28;20056;-76
2022/02/28 10:59:28;;;;;;;6.73;3.83;;;;;;;3.91;61.84;101328.22;31203465;28;20049;-75
2022/02/28 11:14:33;;;;;;;5.50;3.57;;;;;;;3.89;61.58;101332.34;31191513;28;20049;-79
2022/02/28 11:29:35;;;;;;;6.57;3.63;;;;;;;3.47;62.46;101335.44;31217720;28;20061;-78
2022/02/28 11:44:54;;;;;;;13.27;4.43;;;;;;;3.04;65.00;101338.75;31202162;28;20442;-76
2022/02/28 11:59:56;;;;;;;7.63;4.50;;;;;;;2.84;65.17;101316.28;31226294;28;20091;-77
2022/02/28 12:14:59;;;;;;;10.30;5.07;;;;;;;2.66;67.55;101301.53;31205246;28;20397;-77
2022/02/28 12:30:36;;;;;;;6.93;4.13;;;;;;;2.38;67.98;101307.56;31233153;28;20053;-78
2022/02/28 12:45:40;;;;;;;6.87;4.13;;;;;;;2.25;69.51;101302.53;31210831;28;20514;-76
2022/02/28 13:00:41;;;;;;;7.27;4.53;;;;;;;1.92;70.50;101327.44;31224595;28;20042;-76
2022/02/28 13:15:43;;;;;;;7.47;4.67;;;;;;;1.96;70.66;101322.19;31176362;28;20053;-77
2022/02/28 13:30:45;;;;;;;6.53;4.07;;;;;;;1.60;72.06;101339.69;31158230;28;20050;-78
2022/02/28 13:45:51;;;;;;;6.03;4.83;;;;;;;1.55;72.39;101345.25;31195593;28;20059;-78
2022/02/28 14:00:57;;;;;;;8.20;4.17;;;;;;;1.39;73.85;101341.59;31187338;28;20050;-78
2022/02/28 14:16:24;;;;;;;7.30;3.80;;;;;;;1.40;73.67;101321.75;31185826;28;20073;-79
2022/02/28 14:31:26;;;;;;;5.43;4.27;;;;;;;1.36;74.92;101315.47;31237187;28;20072;-79
2022/02/28 14:46:29;;;;;;;4.27;3.10;;;;;;;1.28;75.81;101302.94;31236460;28;20111;-77
2022/02/28 15:01:31;;;;;;;7.53;5.00;;;;;;;1.14;77.17;101307.78;31182871;28;20049;-77
2022/02/28 15:16:37;;;;;;;6.67;3.87;;;;;;;0.85;78.35;101311.25;31204021;28;20132;-78
2022/02/28 15:31:39;;;;;;;12.43;4.70;;;;;;;0.74;78.91;101326.84;31237223;28;20523;-78
2022/02/28 15:46:41;;;;;;;8.30;4.43;;;;;;;0.95;78.66;101346.41;31193666;28;20123;-78
2022/02/28 16:01:44;;;;;;;12.10;5.03;;;;;;;0.90;77.59;101351.97;31193081;28;20092;-78
2022/02/28 16:16:46;;;;;;;8.40;5.20;;;;;;;0.93;77.95;101362.00;31183148;28;20061;-78
2022/02/28 16:31:49;;;;;;;7.17;4.70;;;;;;;0.96;76.96;101360.56;31221019;28;20049;-78
2022/02/28 16:46:51;;;;;;;5.20;3.80;;;;;;;0.89;79.22;101350.38;31222830;28;20152;-79
2022/02/28 17:01:52;;;;;;;7.60;4.17;;;;;;;1.02;79.48;101364.63;31216871;28;20074;-77
2022/02/28 17:17:06;;;;;;;6.23;4.40;;;;;;;1.01;79.30;101369.19;31176396;28;20052;-79
2022/02/28 17:32:08;;;;;;;4.23;2.57;;;;;;;0.75;79.77;101363.16;31233663;28;20416;-78
2022/02/28 17:47:11;;;;;;;6.60;3.83;;;;;;;0.92;79.47;101373.03;31269165;28;20140;-79
2022/02/28 18:02:16;;;;;;;6.27;3.83;;;;;;;0.90;80.72;101362.66;31257079;28;20096;-76
2022/02/28 18:17:18;;;;;;;5.93;3.77;;;;;;;0.78;82.18;101365.22;31248353;28;20053;-77
2022/02/28 18:32:30;;;;;;;7.87;5.40;;;;;;;0.89;81.38;101366.44;31191388;28;20053;-78
2022/02/28 18:47:32;;;;;;;7.70;5.13;;;;;;;1.11;81.85;101359.25;31208050;28;20096;-75
2022/02/28 19:02:35;;;;;;;5.37;3.73;;;;;;;0.97;81.18;101367.47;31225195;28;20062;-77
2022/02/28 19:17:37;;;;;;;7.43;4.30;;;;;;;1.00;81.65;101340.88;31184844;28;20483;-79
2022/02/28 19:32:39;;;;;;;7.57;4.70;;;;;;;1.18;81.23;101330.84;31221133;28;20049;-76
2022/02/28 19:47:41;;;;;;;8.43;4.57;;;;;;;1.26;80.86;101319.31;31217318;28;20136;-77
2022/02/28 20:02:43;;;;;;;6.37;4.33;;;;;;;1.23;80.58;101308.47;31194154;28;20451;-78
2022/02/28 20:17:46;;;;;;;4.43;3.33;;;;;;;1.31;80.25;101302.28;31196943;28;20045;-79
2022/02/28 20:32:47;;;;;;;5.80;3.93;;;;;;;1.30;80.81;101264.06;31224056;28;20542;-82
2022/02/28 20:47:50;;;;;;;6.10;4.03;;;;;;;1.36;80.57;101261.97;31212029;28;20049;-82
2022/02/28 21:02:54;;;;;;;6.90;4.77;;;;;;;1.34;80.85;101258.84;31210727;28;20057;-84
2022/02/28 21:17:57;;;;;;;8.40;5.33;;;;;;;1.50;80.87;101265.16;31210491;28;20046;-83
2022/02/28 21:32:58;;;;;;;9.97;5.10;;;;;;;1.49;81.40;101255.56;31245765;28;20076;-81
2022/02/28 21:48:01;;;;;;;10.93;6.43;;;;;;;1.53;81.20;101240.41;31242707;28;20068;-81
2022/02/28 22:03:03;;;;;;;9.03;5.53;;;;;;;1.42;82.71;101238.47;31232140;28;20081;-83
2022/02/28 22:18:05;;;;;;;12.07;6.43;;;;;;;1.45;82.29;101254.63;31229353;28;20048;-81
2022/02/28 22:33:07;;;;;;;17.57;7.43;;;;;;;1.53;82.81;101271.75;31231972;28;20053;-81
2022/02/28 22:48:10;;;;;;;10.93;6.33;;;;;;;1.48;83.45;101275.41;31237095;28;20045;-81
2022/02/28 23:18:33;;;;;;;15.33;7.37;;;;;;;1.52;83.24;101268.28;31235470;28;20129;-81
2022/02/28 23:33:35;;;;;;;16.87;7.03;;;;;;;1.45;83.42;101246.59;31254091;28;20085;-80
2022/02/28 23:48:37;;;;;;;18.07;7.30;;;;;;;1.55;83.81;101227.47;31248155;28;20049;-81
